Wind From: 13-12-2017 10:08 Until: 14-12-2017 06:00 warning for: Wind Level: Yellow info button

Although rather usual in this region, locally or potentially dangerous phenomena are expected. (such as local winds, summer thunderstorms, rising streams or high waves) Be aware and pay attention to the latest weather updates, especially if you carry out activities exposed to weather or close to a stream or shoreline. 


Meteo18 Weather Cam more information Meteo18 Weather Cam


Thunder radar more information blitzortung!


Rain radar more information rain snow radar


Visit our other weather sites:

Template documentation
and downloads

And another site



Weather Underground History page Text

Daily Summary for June 11, 2016 Units:  Metric    English   Both
« Previous Day
Next Day »
Daily Weekly Monthly Yearly Custom
  High: Low: Average:
Temperature: 19.6 °C 14.3 °C 16.1 °C
Dew Point: 16.4 °C 13.5 °C 14.8 °C
Humidity: 97 % 77 % 92 %
Wind Speed: 14.5 km/h 0.0 km/h 2.2 km/h
Wind Gust: 20.9 km/h - -
Wind:- - WSW
Pressure: 1012.4 hPa 1009.7 hPa -
Precipitation: 15.7 mm    
Historical Graphs
 
 
Tabular Data for June 11, 2016
Time Temperature Dew Point Pressure Wind Wind Speed Wind Gust Humidity Rainfall Rate (Hourly)
00:07 15.4 °C 14.8 °C 1010.4 hPa Calm     96 % 1.5 mm
00:12 15.4 °C 14.8 °C 1010.0 hPa Calm     96 % 2.5 mm
00:17 15.3 °C 14.7 °C 1010.0 hPa Calm     96 % 2.8 mm
00:22 15.3 °C 14.7 °C 1010.0 hPa Calm     96 % 3.3 mm
00:27 15.3 °C 14.7 °C 1010.0 hPa Calm     96 % 3.6 mm
00:37 15.3 °C 14.7 °C 1010.4 hPa Calm     96 % 3.6 mm
00:42 15.3 °C 14.7 °C 1010.0 hPa Calm     96 % 3.6 mm
00:47 15.3 °C 14.7 °C 1010.0 hPa Calm     96 % 5.8 mm
00:52 15.3 °C 14.7 °C 1010.0 hPa Calm     96 % 7.1 mm
00:57 15.3 °C 14.7 °C 1010.0 hPa Calm     96 % 7.1 mm
01:02 15.2 °C 14.6 °C 1010.0 hPa Calm     96 % 6.9 mm
01:07 15.2 °C 14.6 °C 1010.0 hPa Calm     96 % 6.1 mm
01:12 15.3 °C 14.7 °C 1010.0 hPa Calm     96 % 4.8 mm
01:17 15.2 °C 14.6 °C 1010.0 hPa Calm     96 % 4.3 mm
01:22 15.3 °C 14.7 °C 1009.7 hPa Calm     96 % 4.3 mm
01:27 15.3 °C 14.8 °C 1010.0 hPa Calm   1.6 km/h 97 % 3.8 mm
01:37 15.6 °C 15.1 °C 1010.0 hPa WSW 3.2 km/h 4.8 km/h 97 % 3.8 mm
01:42 15.6 °C 15.1 °C 1010.0 hPa WSW 1.6 km/h 4.8 km/h 97 % 2.3 mm
01:47 15.7 °C 15.2 °C 1010.0 hPa SW 1.6 km/h 4.8 km/h 97 % 0.5 mm
01:52 15.7 °C 15.2 °C 1010.0 hPa SSW 1.6 km/h 6.4 km/h 97 % 0.3 mm
01:57 15.8 °C 15.3 °C 1010.0 hPa Calm   8.0 km/h 97 % 0.0 mm
02:02 15.7 °C 15.1 °C 1010.0 hPa SW 1.6 km/h 8.0 km/h 96 % 0.0 mm
02:07 15.7 °C 15.1 °C 1010.0 hPa SW 3.2 km/h 9.7 km/h 96 % 0.0 mm
02:12 15.7 °C 15.1 °C 1010.0 hPa WSW 1.6 km/h 9.7 km/h 96 % 0.0 mm
02:17 15.6 °C 15.0 °C 1010.0 hPa WSW 1.6 km/h 9.7 km/h 96 % 0.0 mm
02:22 15.6 °C 15.0 °C 1010.0 hPa WSW 3.2 km/h 9.7 km/h 96 % 0.0 mm
02:27 15.6 °C 15.0 °C 1010.0 hPa Calm   6.4 km/h 96 % 0.0 mm
02:32 15.6 °C 15.0 °C 1010.0 hPa WSW 1.6 km/h 6.4 km/h 96 % 0.0 mm
02:37 15.6 °C 15.0 °C 1009.7 hPa SW 1.6 km/h 6.4 km/h 96 % 0.0 mm
02:42 15.5 °C 14.9 °C 1010.0 hPa WSW 1.6 km/h 8.0 km/h 96 % 0.0 mm
02:52 15.4 °C 14.8 °C 1010.0 hPa Calm   11.3 km/h 96 % 0.0 mm
02:57 15.4 °C 14.8 °C 1010.0 hPa Calm   11.3 km/h 96 % 0.0 mm
03:02 15.4 °C 14.8 °C 1010.0 hPa WSW 1.6 km/h 11.3 km/h 96 % 0.0 mm
03:07 15.3 °C 14.7 °C 1010.0 hPa SW 1.6 km/h 6.4 km/h 96 % 0.0 mm
03:12 15.3 °C 14.7 °C 1009.7 hPa SW 1.6 km/h 9.7 km/h 96 % 0.0 mm
03:17 15.3 °C 14.7 °C 1010.0 hPa WNW 1.6 km/h 9.7 km/h 96 % 0.0 mm
03:22 15.2 °C 14.6 °C 1009.7 hPa Calm   9.7 km/h 96 % 0.0 mm
03:32 15.2 °C 14.6 °C 1009.7 hPa SW 1.6 km/h 9.7 km/h 96 % 0.0 mm
03:37 15.1 °C 14.3 °C 1009.7 hPa WSW 3.2 km/h 9.7 km/h 95 % 0.0 mm
03:42 15.0 °C 14.2 °C 1009.7 hPa SW 3.2 km/h 9.7 km/h 95 % 0.0 mm
03:47 14.9 °C 14.1 °C 1009.7 hPa SW 1.6 km/h 9.7 km/h 95 % 0.0 mm
03:52 14.8 °C 14.0 °C 1009.7 hPa WSW 4.8 km/h 8.0 km/h 95 % 0.0 mm
03:57 14.8 °C 14.0 °C 1009.7 hPa Calm   11.3 km/h 95 % 0.0 mm
04:02 14.8 °C 14.0 °C 1009.7 hPa Calm   11.3 km/h 95 % 0.0 mm
04:07 14.8 °C 14.0 °C 1009.7 hPa SW 3.2 km/h 9.7 km/h 95 % 0.0 mm
04:12 14.9 °C 14.1 °C 1009.7 hPa WSW 3.2 km/h 9.7 km/h 95 % 0.0 mm
04:17 14.9 °C 14.1 °C 1009.7 hPa WSW 3.2 km/h 9.7 km/h 95 % 0.0 mm
04:22 14.9 °C 14.1 °C 1009.7 hPa Calm   9.7 km/h 95 % 0.0 mm
04:27 14.9 °C 14.1 °C 1009.7 hPa Calm   6.4 km/h 95 % 0.0 mm
04:32 14.9 °C 14.1 °C 1009.7 hPa Calm   6.4 km/h 95 % 0.0 mm
04:37 14.9 °C 14.1 °C 1009.7 hPa SW 1.6 km/h 6.4 km/h 95 % 0.0 mm
04:42 14.9 °C 14.1 °C 1009.7 hPa Calm   8.0 km/h 95 % 0.0 mm
04:47 14.9 °C 14.1 °C 1009.7 hPa WSW 1.6 km/h 8.0 km/h 95 % 0.0 mm
04:52 14.9 °C 14.1 °C 1009.7 hPa West 3.2 km/h 8.0 km/h 95 % 0.0 mm
04:57 14.9 °C 14.1 °C 1009.7 hPa West 3.2 km/h 9.7 km/h 95 % 0.0 mm
05:02 14.9 °C 14.1 °C 1009.7 hPa WSW 4.8 km/h 9.7 km/h 95 % 0.0 mm
05:17 14.9 °C 14.1 °C 1010.0 hPa Calm   6.4 km/h 95 % 0.0 mm
05:22 14.9 °C 14.1 °C 1010.0 hPa Calm   6.4 km/h 95 % 0.0 mm
05:32 14.9 °C 14.1 °C 1010.0 hPa SW 1.6 km/h 6.4 km/h 95 % 0.0 mm
05:37 14.8 °C 14.0 °C 1010.0 hPa SW 3.2 km/h 6.4 km/h 95 % 0.0 mm
05:42 14.8 °C 14.0 °C 1010.0 hPa WSW 1.6 km/h 8.0 km/h 95 % 0.0 mm
05:47 14.7 °C 13.9 °C 1010.0 hPa WSW 1.6 km/h 8.0 km/h 95 % 0.0 mm
05:52 14.7 °C 13.9 °C 1010.0 hPa WSW 4.8 km/h 8.0 km/h 95 % 0.0 mm
05:57 14.7 °C 13.9 °C 1010.0 hPa Calm   8.0 km/h 95 % 0.0 mm
06:02 14.7 °C 13.9 °C 1010.0 hPa Calm   6.4 km/h 95 % 0.0 mm
06:12 14.5 °C 13.7 °C 1010.0 hPa WSW 3.2 km/h 6.4 km/h 95 % 0.0 mm
06:17 14.4 °C 13.6 °C 1010.0 hPa Calm   6.4 km/h 95 % 0.0 mm
06:22 14.4 °C 13.6 °C 1010.0 hPa Calm   6.4 km/h 95 % 0.0 mm
06:32 14.3 °C 13.5 °C 1010.0 hPa WSW 1.6 km/h 4.8 km/h 95 % 0.0 mm
06:37 14.3 °C 13.7 °C 1010.0 hPa West 1.6 km/h 4.8 km/h 96 % 0.0 mm
06:52 14.6 °C 14.0 °C 1010.4 hPa WSW 1.6 km/h 8.0 km/h 96 % 0.0 mm
06:57 14.7 °C 14.1 °C 1010.4 hPa SSW 1.6 km/h 6.4 km/h 96 % 0.0 mm
07:02 14.7 °C 13.9 °C 1010.4 hPa Calm   9.7 km/h 95 % 0.0 mm
07:12 14.8 °C 14.0 °C 1010.4 hPa SW 1.6 km/h 9.7 km/h 95 % 0.0 mm
07:17 14.7 °C 13.9 °C 1010.4 hPa WSW 1.6 km/h 6.4 km/h 95 % 0.0 mm
07:22 14.7 °C 13.9 °C 1010.4 hPa Calm   6.4 km/h 95 % 0.0 mm
07:27 14.8 °C 14.0 °C 1010.4 hPa Calm   4.8 km/h 95 % 0.0 mm
07:32 14.7 °C 13.9 °C 1010.4 hPa WSW 1.6 km/h 6.4 km/h 95 % 0.0 mm
07:42 14.7 °C 13.9 °C 1010.4 hPa SW 1.6 km/h 8.0 km/h 95 % 0.0 mm
07:47 14.8 °C 14.0 °C 1010.4 hPa SW 1.6 km/h 8.0 km/h 95 % 0.0 mm
07:52 14.8 °C 14.0 °C 1010.7 hPa WNW 1.6 km/h 6.4 km/h 95 % 0.0 mm
07:57 14.8 °C 14.0 °C 1010.7 hPa SW 8.0 km/h 8.0 km/h 95 % 0.0 mm
08:02 14.7 °C 13.9 °C 1010.7 hPa WSW 4.8 km/h 8.0 km/h 95 % 0.0 mm
08:12 14.8 °C 14.2 °C 1010.7 hPa WSW 1.6 km/h 9.7 km/h 96 % 0.0 mm
08:17 14.8 °C 14.2 °C 1010.7 hPa Calm   9.7 km/h 96 % 0.0 mm
08:22 14.8 °C 14.0 °C 1010.7 hPa SW 1.6 km/h 8.0 km/h 95 % 0.0 mm
08:32 15.1 °C 14.3 °C 1010.7 hPa WSW 1.6 km/h 8.0 km/h 95 % 0.0 mm
08:37 15.2 °C 14.4 °C 1010.7 hPa Calm   6.4 km/h 95 % 0.0 mm
08:42 15.3 °C 14.3 °C 1011.1 hPa Calm   6.4 km/h 94 % 0.0 mm
08:47 15.4 °C 14.4 °C 1011.1 hPa WSW 1.6 km/h 6.4 km/h 94 % 0.0 mm
08:52 15.4 °C 14.3 °C 1010.7 hPa West 3.2 km/h 6.4 km/h 93 % 0.0 mm
08:57 15.5 °C 14.4 °C 1010.7 hPa SW 4.8 km/h 6.4 km/h 93 % 0.0 mm
09:12 15.8 °C 14.5 °C 1011.1 hPa SW 1.6 km/h 9.7 km/h 92 % 0.0 mm
09:17 15.9 °C 14.6 °C 1011.1 hPa Calm   9.7 km/h 92 % 0.0 mm
09:22 16.0 °C 14.7 °C 1011.1 hPa SW 1.6 km/h 9.7 km/h 92 % 0.0 mm
09:27 16.1 °C 14.6 °C 1011.1 hPa Calm   11.3 km/h 91 % 0.0 mm
09:32 16.0 °C 14.5 °C 1011.1 hPa West 1.6 km/h 11.3 km/h 91 % 0.0 mm
09:37 15.9 °C 14.4 °C 1011.1 hPa WSW 3.2 km/h 6.4 km/h 91 % 0.0 mm
09:42 15.9 °C 14.4 °C 1011.1 hPa WSW 4.8 km/h 8.0 km/h 91 % 0.0 mm
09:52 15.8 °C 14.3 °C 1011.1 hPa West 6.4 km/h 8.0 km/h 91 % 0.0 mm
09:57 15.8 °C 14.3 °C 1011.1 hPa Calm   9.7 km/h 91 % 0.0 mm
10:02 15.7 °C 14.2 °C 1011.1 hPa WSW 3.2 km/h 9.7 km/h 91 % 0.0 mm
10:07 15.7 °C 14.4 °C 1011.1 hPa Calm   9.7 km/h 92 % 0.0 mm
10:12 15.7 °C 14.4 °C 1011.1 hPa SW 3.2 km/h 9.7 km/h 92 % 0.0 mm
10:17 15.7 °C 14.4 °C 1011.1 hPa Calm   11.3 km/h 92 % 0.0 mm
10:22 15.8 °C 14.5 °C 1011.1 hPa SW 4.8 km/h 11.3 km/h 92 % 0.0 mm
10:27 15.8 °C 14.3 °C 1011.1 hPa WSW 3.2 km/h 9.7 km/h 91 % 0.0 mm
10:32 16.0 °C 14.7 °C 1011.1 hPa SW 3.2 km/h 9.7 km/h 92 % 0.0 mm
10:37 16.2 °C 14.9 °C 1011.1 hPa SSW 1.6 km/h 9.7 km/h 92 % 0.0 mm
10:42 16.3 °C 14.8 °C 1011.1 hPa SW 3.2 km/h 9.7 km/h 91 % 0.0 mm
10:52 16.1 °C 14.8 °C 1011.1 hPa West 8.0 km/h 12.9 km/h 92 % 0.0 mm
10:57 16.1 °C 14.6 °C 1011.1 hPa SW 4.8 km/h 12.9 km/h 91 % 0.0 mm
11:02 16.1 °C 14.6 °C 1011.1 hPa WSW 6.4 km/h 9.7 km/h 91 % 0.0 mm
11:07 16.0 °C 14.5 °C 1011.1 hPa NE 4.8 km/h 9.7 km/h 91 % 0.0 mm
11:12 16.1 °C 14.6 °C 1011.1 hPa SW 1.6 km/h 9.7 km/h 91 % 0.0 mm
11:17 16.2 °C 14.7 °C 1011.1 hPa WSW 3.2 km/h 11.3 km/h 91 % 0.0 mm
11:22 16.3 °C 14.8 °C 1011.1 hPa West 4.8 km/h 11.3 km/h 91 % 0.0 mm
11:32 16.3 °C 14.8 °C 1011.4 hPa SW 6.4 km/h 8.0 km/h 91 % 0.0 mm
11:37 16.3 °C 14.8 °C 1011.4 hPa SW 4.8 km/h 9.7 km/h 91 % 0.0 mm
11:42 16.2 °C 14.6 °C 1011.4 hPa WSW 9.7 km/h 12.9 km/h 90 % 0.0 mm
11:52 16.2 °C 14.7 °C 1011.4 hPa SW 3.2 km/h 12.9 km/h 91 % 0.0 mm
11:57 16.2 °C 14.7 °C 1011.4 hPa SW 4.8 km/h 11.3 km/h 91 % 0.0 mm
12:02 16.2 °C 14.6 °C 1011.4 hPa SW 4.8 km/h 9.7 km/h 90 % 0.0 mm
12:07 16.2 °C 14.7 °C 1011.4 hPa SW 9.7 km/h 9.7 km/h 91 % 0.0 mm
12:12 16.2 °C 14.7 °C 1011.4 hPa Calm   9.7 km/h 91 % 0.0 mm
12:22 16.3 °C 14.8 °C 1011.4 hPa SW 1.6 km/h 9.7 km/h 91 % 0.0 mm
12:27 16.5 °C 14.9 °C 1011.4 hPa WSW 3.2 km/h 8.0 km/h 90 % 0.0 mm
12:37 16.5 °C 14.9 °C 1011.4 hPa Calm   12.9 km/h 90 % 0.0 mm
12:42 16.4 °C 14.8 °C 1011.4 hPa WSW 1.6 km/h 12.9 km/h 90 % 0.0 mm
12:47 16.4 °C 14.8 °C 1011.4 hPa WSW 8.0 km/h 9.7 km/h 90 % 0.0 mm
12:52 16.3 °C 14.7 °C 1011.4 hPa WSW 3.2 km/h 14.5 km/h 90 % 0.0 mm
12:57 16.3 °C 14.7 °C 1011.4 hPa WSW 4.8 km/h 14.5 km/h 90 % 0.0 mm
13:02 16.3 °C 14.8 °C 1011.4 hPa Calm   14.5 km/h 91 % 0.0 mm
13:07 16.3 °C 14.7 °C 1011.4 hPa SW 3.2 km/h 11.3 km/h 90 % 0.0 mm
13:12 16.4 °C 14.8 °C 1011.4 hPa WSW 1.6 km/h 11.3 km/h 90 % 0.0 mm
13:17 16.7 °C 15.1 °C 1011.4 hPa Calm   6.4 km/h 90 % 0.0 mm
13:22 16.9 °C 15.1 °C 1011.4 hPa Calm   6.4 km/h 89 % 0.0 mm
13:32 17.4 °C 15.4 °C 1011.4 hPa SW 3.2 km/h 6.4 km/h 88 % 0.0 mm
13:37 17.5 °C 15.3 °C 1011.4 hPa Calm   6.4 km/h 87 % 0.0 mm
13:42 17.5 °C 15.1 °C 1011.4 hPa Calm   6.4 km/h 86 % 0.0 mm
13:47 17.6 °C 15.2 °C 1011.4 hPa SW 4.8 km/h 6.4 km/h 86 % 0.0 mm
13:52 17.6 °C 15.8 °C 1011.4 hPa Calm   6.4 km/h 89 % 0.0 mm
13:57 17.6 °C 15.8 °C 1011.4 hPa WSW 1.6 km/h 6.4 km/h 89 % 0.5 mm
14:02 17.8 °C 15.8 °C 1011.1 hPa Calm   4.8 km/h 88 % 0.5 mm
14:07 18.0 °C 16.0 °C 1011.1 hPa West 3.2 km/h 4.8 km/h 88 % 0.5 mm
14:12 18.3 °C 15.7 °C 1011.1 hPa Calm   4.8 km/h 85 % 0.5 mm
14:17 18.3 °C 15.7 °C 1011.1 hPa Calm   6.4 km/h 85 % 0.5 mm
14:22 18.3 °C 15.5 °C 1011.1 hPa Calm   8.0 km/h 84 % 0.5 mm
14:27 18.3 °C 15.4 °C 1011.1 hPa SW 1.6 km/h 8.0 km/h 83 % 0.5 mm
14:32 18.4 °C 15.5 °C 1011.1 hPa SSW 1.6 km/h 8.0 km/h 83 % 0.5 mm
14:37 18.7 °C 15.9 °C 1011.1 hPa SW 1.6 km/h 8.0 km/h 84 % 0.5 mm
14:42 19.1 °C 16.0 °C 1011.1 hPa Calm   6.4 km/h 82 % 0.5 mm
14:52 19.4 °C 15.7 °C 1011.1 hPa West 3.2 km/h 6.4 km/h 79 % 0.0 mm
14:57 18.9 °C 15.6 °C 1011.1 hPa SW 3.2 km/h 16.1 km/h 81 % 0.0 mm
15:02 18.4 °C 15.6 °C 1011.1 hPa Calm   16.1 km/h 84 % 0.0 mm
15:07 18.3 °C 15.7 °C 1011.1 hPa SSW 4.8 km/h 16.1 km/h 85 % 0.0 mm
15:12 18.3 °C 15.7 °C 1011.1 hPa SW 11.3 km/h 11.3 km/h 85 % 0.0 mm
15:17 18.1 °C 15.4 °C 1011.1 hPa NE 3.2 km/h 14.5 km/h 84 % 0.0 mm
15:22 18.2 °C 15.6 °C 1011.1 hPa WSW 8.0 km/h 14.5 km/h 85 % 0.0 mm
15:27 18.6 °C 15.8 °C 1011.1 hPa West 1.6 km/h 16.1 km/h 84 % 0.0 mm
15:32 19.2 °C 16.1 °C 1011.1 hPa SW 4.8 km/h 16.1 km/h 82 % 0.0 mm
15:42 19.6 °C 15.9 °C 1011.1 hPa WSW 6.4 km/h 17.7 km/h 79 % 0.0 mm
15:47 19.6 °C 15.5 °C 1011.1 hPa ENE 4.8 km/h 17.7 km/h 77 % 0.0 mm
15:52 19.5 °C 15.6 °C 1011.1 hPa NNW 1.6 km/h 17.7 km/h 78 % 0.0 mm
15:57 19.3 °C 15.2 °C 1011.1 hPa SW 6.4 km/h 16.1 km/h 77 % 0.0 mm
16:02 18.9 °C 15.2 °C 1011.1 hPa SSW 3.2 km/h 16.1 km/h 79 % 0.0 mm
16:07 18.6 °C 14.9 °C 1011.1 hPa NW 1.6 km/h 16.1 km/h 79 % 0.0 mm
16:12 18.4 °C 15.3 °C 1011.1 hPa West 3.2 km/h 16.1 km/h 82 % 0.0 mm
16:17 18.3 °C 15.5 °C 1011.1 hPa SW 1.6 km/h 11.3 km/h 84 % 0.0 mm
16:22 18.3 °C 15.5 °C 1011.1 hPa SW 1.6 km/h 6.4 km/h 84 % 0.0 mm
16:27 18.3 °C 15.5 °C 1011.1 hPa West 3.2 km/h 8.0 km/h 84 % 0.0 mm
16:32 17.9 °C 14.8 °C 1011.4 hPa SW 14.5 km/h 16.1 km/h 82 % 0.0 mm
16:37 16.9 °C 14.4 °C 1011.4 hPa WSW 3.2 km/h 20.9 km/h 85 % 0.3 mm
16:42 16.1 °C 14.3 °C 1011.4 hPa Calm   20.9 km/h 89 % 0.5 mm
16:47 15.9 °C 14.4 °C 1011.4 hPa WSW 1.6 km/h 20.9 km/h 91 % 0.8 mm
16:52 15.9 °C 14.6 °C 1011.1 hPa WSW 1.6 km/h 17.7 km/h 92 % 1.0 mm
16:57 16.5 °C 15.7 °C 1011.1 hPa SW 1.6 km/h 12.9 km/h 95 % 1.0 mm
17:02 17.2 °C 16.1 °C 1011.1 hPa WSW 8.0 km/h 12.9 km/h 93 % 1.0 mm
17:07 17.7 °C 16.4 °C 1011.1 hPa SW 4.8 km/h 11.3 km/h 92 % 1.0 mm
17:12 18.1 °C 16.1 °C 1011.1 hPa West 12.9 km/h 12.9 km/h 88 % 1.0 mm
17:17 18.1 °C 15.9 °C 1011.1 hPa West 6.4 km/h 16.1 km/h 87 % 1.0 mm
17:22 18.2 °C 16.4 °C 1011.1 hPa WSW 8.0 km/h 17.7 km/h 89 % 1.0 mm
17:27 18.1 °C 15.9 °C 1011.1 hPa WSW 8.0 km/h 17.7 km/h 87 % 1.0 mm
17:32 17.8 °C 15.6 °C 1011.1 hPa SW 4.8 km/h 17.7 km/h 87 % 1.0 mm
17:37 17.4 °C 15.4 °C 1011.1 hPa WSW 4.8 km/h 17.7 km/h 88 % 1.3 mm
17:42 17.1 °C 15.4 °C 1011.1 hPa WNW 1.6 km/h 17.7 km/h 90 % 1.3 mm
17:47 16.8 °C 15.3 °C 1011.1 hPa SW 3.2 km/h 16.1 km/h 91 % 1.0 mm
17:52 16.6 °C 15.3 °C 1011.4 hPa West 3.2 km/h 16.1 km/h 92 % 2.3 mm
17:57 16.3 °C 15.0 °C 1011.4 hPa Calm   14.5 km/h 92 % 3.3 mm
18:02 16.1 °C 15.0 °C 1011.1 hPa WSW 1.6 km/h 11.3 km/h 93 % 3.8 mm
18:07 16.1 °C 15.1 °C 1011.4 hPa Calm   9.7 km/h 94 % 3.8 mm
18:12 16.2 °C 15.2 °C 1011.4 hPa Calm   3.2 km/h 94 % 3.8 mm
18:17 16.2 °C 15.2 °C 1011.4 hPa West 3.2 km/h 6.4 km/h 94 % 3.8 mm
18:22 16.3 °C 15.3 °C 1011.1 hPa Calm   6.4 km/h 94 % 3.8 mm
18:32 16.6 °C 15.6 °C 1011.1 hPa WSW 3.2 km/h 11.3 km/h 94 % 3.8 mm
18:42 16.8 °C 15.8 °C 1011.1 hPa West 3.2 km/h 11.3 km/h 94 % 2.8 mm
18:47 16.9 °C 15.6 °C 1011.1 hPa SE 1.6 km/h 11.3 km/h 92 % 2.3 mm
18:57 16.9 °C 15.6 °C 1011.1 hPa West 1.6 km/h 9.7 km/h 92 % 0.3 mm
19:07 17.0 °C 15.7 °C 1011.1 hPa Calm   6.4 km/h 92 % 0.0 mm
19:17 17.1 °C 15.8 °C 1011.1 hPa SW 1.6 km/h 4.8 km/h 92 % 0.0 mm
19:22 17.0 °C 15.7 °C 1011.1 hPa SW 3.2 km/h 6.4 km/h 92 % 0.0 mm
19:32 17.0 °C 15.9 °C 1011.1 hPa WSW 1.6 km/h 4.8 km/h 93 % 0.0 mm
19:37 16.9 °C 15.8 °C 1011.1 hPa West 3.2 km/h 4.8 km/h 93 % 0.3 mm
19:47 16.6 °C 15.5 °C 1011.4 hPa SW 1.6 km/h 8.0 km/h 93 % 2.0 mm
19:52 16.4 °C 15.4 °C 1011.1 hPa Calm   8.0 km/h 94 % 3.0 mm
19:57 16.4 °C 15.4 °C 1011.1 hPa SW 3.2 km/h 8.0 km/h 94 % 3.0 mm
20:02 16.4 °C 15.4 °C 1011.4 hPa WSW 1.6 km/h 8.0 km/h 94 % 3.0 mm
20:12 16.4 °C 15.4 °C 1011.1 hPa Calm   6.4 km/h 94 % 3.3 mm
20:17 16.3 °C 15.3 °C 1011.1 hPa SW 4.8 km/h 8.0 km/h 94 % 3.3 mm
20:22 16.3 °C 15.3 °C 1011.1 hPa Calm   9.7 km/h 94 % 3.3 mm
20:27 16.2 °C 15.2 °C 1011.1 hPa SW 3.2 km/h 9.7 km/h 94 % 3.3 mm
20:32 16.2 °C 15.2 °C 1011.1 hPa SW 4.8 km/h 9.7 km/h 94 % 3.3 mm
20:37 16.1 °C 15.1 °C 1011.1 hPa WSW 3.2 km/h 8.0 km/h 94 % 3.0 mm
20:42 16.1 °C 15.1 °C 1011.1 hPa WNW 4.8 km/h 8.0 km/h 94 % 2.5 mm
20:47 16.1 °C 15.3 °C 1011.1 hPa Calm   6.4 km/h 95 % 1.0 mm
20:52 16.0 °C 15.0 °C 1011.1 hPa WSW 1.6 km/h 4.8 km/h 94 % 0.5 mm
20:57 16.0 °C 15.2 °C 1011.4 hPa SW 3.2 km/h 6.4 km/h 95 % 0.5 mm
21:02 15.9 °C 15.1 °C 1011.4 hPa WSW 1.6 km/h 9.7 km/h 95 % 0.5 mm
21:07 15.9 °C 15.1 °C 1011.1 hPa WSW 3.2 km/h 9.7 km/h 95 % 0.3 mm
21:17 15.9 °C 14.9 °C 1011.1 hPa SW 1.6 km/h 8.0 km/h 94 % 0.0 mm
21:22 15.8 °C 14.8 °C 1011.1 hPa WSW 4.8 km/h 8.0 km/h 94 % 0.0 mm
21:27 15.8 °C 14.8 °C 1011.4 hPa SW 4.8 km/h 8.0 km/h 94 % 0.0 mm
21:32 15.8 °C 14.8 °C 1011.4 hPa South 3.2 km/h 6.4 km/h 94 % 0.0 mm
21:37 15.8 °C 14.8 °C 1011.4 hPa WSW 1.6 km/h 9.7 km/h 94 % 0.0 mm
21:42 15.7 °C 14.7 °C 1011.4 hPa Calm   9.7 km/h 94 % 0.0 mm
21:47 15.7 °C 14.7 °C 1011.4 hPa WSW 1.6 km/h 9.7 km/h 94 % 0.0 mm
21:52 15.6 °C 14.6 °C 1011.4 hPa SW 1.6 km/h 6.4 km/h 94 % 0.0 mm
21:57 15.6 °C 14.6 °C 1011.4 hPa SW 1.6 km/h 6.4 km/h 94 % 0.0 mm
22:02 15.5 °C 14.7 °C 1011.4 hPa SW 1.6 km/h 6.4 km/h 95 % 0.0 mm
22:07 15.4 °C 14.6 °C 1011.7 hPa NE 1.6 km/h 8.0 km/h 95 % 0.0 mm
22:12 15.4 °C 14.6 °C 1011.7 hPa WSW 1.6 km/h 8.0 km/h 95 % 0.0 mm
22:17 15.4 °C 14.6 °C 1011.7 hPa WSW 1.6 km/h 8.0 km/h 95 % 0.0 mm
22:22 15.4 °C 14.6 °C 1011.7 hPa Calm   6.4 km/h 95 % 0.0 mm
22:27 15.4 °C 14.6 °C 1011.7 hPa Calm   6.4 km/h 95 % 0.0 mm
22:32 15.4 °C 14.6 °C 1011.7 hPa West 1.6 km/h 4.8 km/h 95 % 0.0 mm
22:37 15.3 °C 14.5 °C 1011.7 hPa Calm   3.2 km/h 95 % 0.0 mm
22:42 15.3 °C 14.5 °C 1011.7 hPa Calm   3.2 km/h 95 % 0.0 mm
22:47 15.2 °C 14.4 °C 1011.7 hPa West 1.6 km/h 3.2 km/h 95 % 0.0 mm
22:52 15.2 °C 14.4 °C 1011.7 hPa Calm   4.8 km/h 95 % 0.0 mm
23:02 15.2 °C 14.6 °C 1012.1 hPa Calm   6.4 km/h 96 % 0.0 mm
23:07 15.3 °C 14.7 °C 1012.1 hPa Calm   6.4 km/h 96 % 0.0 mm
23:12 15.3 °C 14.7 °C 1012.1 hPa Calm   6.4 km/h 96 % 0.0 mm
23:17 15.3 °C 14.7 °C 1012.1 hPa WSW 1.6 km/h 4.8 km/h 96 % 0.0 mm
23:22 15.3 °C 14.7 °C 1012.1 hPa WSW 1.6 km/h 6.4 km/h 96 % 0.0 mm
23:32 15.3 °C 14.7 °C 1012.4 hPa WSW 1.6 km/h 6.4 km/h 96 % 0.0 mm
23:37 15.4 °C 14.6 °C 1012.4 hPa WSW 1.6 km/h 6.4 km/h 95 % 0.0 mm
23:42 15.4 °C 14.6 °C 1012.4 hPa WSW 1.6 km/h 8.0 km/h 95 % 0.0 mm
23:47 15.4 °C 14.6 °C 1012.4 hPa Calm   8.0 km/h 95 % 0.0 mm
23:57 15.4 °C 14.6 °C 1012.4 hPa WSW 3.2 km/h 6.4 km/h 95 % 0.0 mm
Meteo18
Compliments of Weather Underground - 4 mb

Script developed by  Jim McMurry - jmcmurry@mwt.net Adapted for the template by  Wim van der Kuil - Leuven-Template.eu

You find our weather info also at:

European Weather Network

Weather Underground

Equipment we use:

Weather-station
Davis Vue

Weather-program
Meteohub

Weather-server
Raspberry PI 2 B+

Provider
1 and 1

Davis Vue

Meteohub

Raspberry PI 2 B+

1 and 1